createdAt,value
2017-02-14T00:01:57.219Z,0
2017-02-14T00:03:54.481Z,0
2017-02-14T00:05:51.759Z,0
2017-02-14T00:07:49.094Z,0
2017-02-14T00:09:46.337Z,0
2017-02-14T00:11:44.201Z,0
2017-02-14T00:13:51.894Z,0
2017-02-14T00:15:49.315Z,0
2017-02-14T00:17:41.722Z,0
2017-02-14T00:19:29.100Z,0
2017-02-14T00:21:21.623Z,0
2017-02-14T00:23:13.975Z,0
2017-02-14T00:25:16.898Z,0
2017-02-14T00:27:19.284Z,0
2017-02-14T00:29:26.712Z,0
2017-02-14T00:31:24.011Z,0
2017-02-14T00:33:21.529Z,0
2017-02-14T00:35:08.876Z,0
2017-02-14T00:37:11.144Z,0
2017-02-14T00:39:18.455Z,0
2017-02-14T00:41:15.763Z,0
2017-02-14T00:43:08.153Z,0
2017-02-14T00:45:00.470Z,0
2017-02-14T00:46:58.115Z,0
2017-02-14T00:49:00.399Z,0
2017-02-14T00:50:52.917Z,0
2017-02-14T00:52:45.235Z,0
2017-02-14T00:54:37.724Z,0
2017-02-14T00:56:39.931Z,0
2017-02-14T00:58:27.288Z,0
2017-02-14T01:00:34.516Z,0
2017-02-14T01:02:41.782Z,0
2017-02-14T01:04:39.183Z,0
2017-02-14T01:06:41.449Z,0
2017-02-14T01:08:33.948Z,0
2017-02-14T01:10:41.400Z,0
2017-02-14T01:12:43.774Z,0
2017-02-14T01:14:46.160Z,0
2017-02-14T01:16:38.447Z,0
2017-02-14T01:18:35.851Z,0
2017-02-14T01:20:34.010Z,0
2017-02-14T01:22:41.523Z,0
2017-02-14T01:24:48.891Z,0
2017-02-14T01:26:36.201Z,0
2017-02-14T01:28:38.517Z,0
2017-02-14T01:30:30.967Z,0
2017-02-14T01:32:28.285Z,0
2017-02-14T01:34:20.549Z,0
2017-02-14T01:36:17.904Z,0
2017-02-14T01:38:20.240Z,0
2017-02-14T01:40:12.652Z,0
2017-02-14T01:42:04.955Z,0
2017-02-14T01:43:57.319Z,0
2017-02-14T01:45:44.757Z,0
2017-02-14T01:47:32.033Z,0
2017-02-14T01:49:29.416Z,0
2017-02-14T01:51:31.706Z,0
2017-02-14T01:53:34.255Z,0
2017-02-14T01:55:37.052Z,0
2017-02-14T01:57:39.300Z,0
2017-02-14T01:59:31.630Z,0
2017-02-14T02:01:24.088Z,0
2017-02-14T02:03:11.552Z,0
2017-02-14T02:05:03.804Z,0
2017-02-14T02:06:51.170Z,0
2017-02-14T02:08:43.450Z,0
2017-02-14T02:10:45.796Z,0
2017-02-14T02:12:38.234Z,0
2017-02-14T02:14:25.635Z,0
2017-02-14T02:16:23.029Z,0
2017-02-14T02:18:25.285Z,0
2017-02-14T02:20:12.578Z,0
2017-02-14T02:22:14.847Z,0
2017-02-14T02:24:07.376Z,0
2017-02-14T02:25:54.668Z,0
2017-02-14T02:28:02.562Z,0
2017-02-14T02:30:00.092Z,0
2017-02-14T02:31:42.432Z,0
2017-02-14T02:33:39.773Z,0
2017-02-14T02:35:37.130Z,0
2017-02-14T02:37:44.495Z,0
2017-02-14T02:39:46.795Z,0
2017-02-14T02:41:49.095Z,0
2017-02-14T02:43:51.458Z,0
2017-02-14T02:45:58.845Z,0
2017-02-14T02:47:56.308Z,0
2017-02-14T02:49:48.647Z,0
2017-02-14T02:51:51.034Z,0
2017-02-14T02:53:48.314Z,0
2017-02-14T02:55:40.667Z,0
2017-02-14T02:57:33.036Z,0
2017-02-14T02:59:40.397Z,0
2017-02-14T03:01:48.130Z,0
2017-02-14T03:03:55.744Z,0
2017-02-14T03:05:48.258Z,0
2017-02-14T03:07:50.524Z,0
2017-02-14T03:09:52.836Z,0
2017-02-14T03:12:00.085Z,0
2017-02-14T03:14:02.471Z,0
2017-02-14T03:15:59.809Z,0
2017-02-14T03:18:07.165Z,0
2017-02-14T03:20:04.452Z,0
2017-02-14T03:21:51.841Z,0
2017-02-14T03:23:49.176Z,0
2017-02-14T03:25:51.578Z,0
2017-02-14T03:27:38.965Z,0
2017-02-14T03:29:36.398Z,0
2017-02-14T03:31:28.677Z,0
2017-02-14T03:33:25.963Z,0
2017-02-14T03:35:18.481Z,0
2017-02-14T03:37:31.442Z,0
2017-02-14T03:39:38.682Z,0
2017-02-14T03:41:36.005Z,0
2017-02-14T03:43:23.306Z,0
2017-02-14T03:45:20.582Z,0
2017-02-14T03:47:22.849Z,0
2017-02-14T03:49:20.137Z,0
2017-02-14T03:51:17.553Z,0
2017-02-14T03:53:24.705Z,0
2017-02-14T03:55:36.988Z,0
2017-02-14T03:57:24.392Z,0
2017-02-14T03:59:26.687Z,0
2017-02-14T04:01:24.278Z,0
2017-02-14T04:03:16.526Z,0
2017-02-14T04:05:03.927Z,0
2017-02-14T04:07:06.278Z,0
2017-02-14T04:08:58.699Z,0
2017-02-14T04:11:06.779Z,0
2017-02-14T04:13:19.077Z,0
2017-02-14T04:15:16.389Z,0
2017-02-14T04:17:13.672Z,0
2017-02-14T04:19:06.020Z,0
2017-02-14T04:21:03.368Z,0
2017-02-14T04:23:10.900Z,0
2017-02-14T04:25:08.334Z,0
2017-02-14T04:27:00.665Z,0
2017-02-14T04:28:58.018Z,0
2017-02-14T04:30:45.435Z,0
2017-02-14T04:32:37.959Z,0
2017-02-14T04:34:40.317Z,0
2017-02-14T04:36:37.598Z,0
2017-02-14T04:38:35.066Z,0
2017-02-14T04:40:22.385Z,0
2017-02-14T04:42:24.829Z,0
2017-02-14T04:44:12.889Z,0
2017-02-14T04:46:20.762Z,0
2017-02-14T04:48:23.293Z,0
2017-02-14T04:50:15.666Z,0
2017-02-14T04:52:17.945Z,0
2017-02-14T04:54:15.521Z,0
2017-02-14T04:56:12.903Z,0
2017-02-14T04:58:00.371Z,0
2017-02-14T04:59:52.730Z,0
2017-02-14T05:01:55.072Z,0
2017-02-14T05:03:52.407Z,0
2017-02-14T05:05:40.015Z,0
2017-02-14T05:07:37.380Z,0
2017-02-14T05:09:34.695Z,0
2017-02-14T05:11:42.184Z,0
2017-02-14T05:13:54.540Z,0
2017-02-14T05:15:51.987Z,0
2017-02-14T05:17:54.433Z,0
2017-02-14T05:19:57.400Z,0
2017-02-14T05:21:54.879Z,0
2017-02-14T05:24:02.098Z,0
2017-02-14T05:25:54.555Z,0
2017-02-14T05:27:51.961Z,0
2017-02-14T05:29:39.261Z,0
2017-02-14T05:31:46.529Z,0
2017-02-14T05:33:43.791Z,0
2017-02-14T05:35:36.052Z,0
2017-02-14T05:37:33.332Z,0
2017-02-14T05:39:35.640Z,0
2017-02-14T05:41:38.092Z,0
2017-02-14T05:43:40.349Z,0
2017-02-14T05:45:47.679Z,0
2017-02-14T05:47:49.992Z,0
2017-02-14T05:49:42.483Z,0
2017-02-14T05:51:39.866Z,0
2017-02-14T05:53:37.572Z,0
2017-02-14T05:55:45.582Z,0
2017-02-14T05:57:48.099Z,0
2017-02-14T05:59:35.516Z,0
2017-02-14T06:01:32.802Z,0
2017-02-14T06:03:35.347Z,0
2017-02-14T06:05:37.727Z,0
2017-02-14T06:07:35.040Z,0
2017-02-14T06:09:37.368Z,0
2017-02-14T06:11:34.767Z,0
2017-02-14T06:13:42.167Z,0
2017-02-14T06:15:39.453Z,0
2017-02-14T06:17:31.800Z,5
2017-02-14T06:19:39.146Z,5
2017-02-14T06:21:41.672Z,5
2017-02-14T06:23:29.095Z,10
2017-02-14T06:25:21.440Z,10
2017-02-14T06:27:18.835Z,10
2017-02-14T06:29:26.559Z,15
2017-02-14T06:31:19.515Z,20
2017-02-14T06:33:16.900Z,20
2017-02-14T06:35:19.138Z,25
2017-02-14T06:37:16.516Z,30
2017-02-14T06:39:08.996Z,30
2017-02-14T06:41:21.328Z,35
2017-02-14T06:43:28.770Z,35
2017-02-14T06:45:21.115Z,40
2017-02-14T06:47:23.309Z,45
2017-02-14T06:49:20.669Z,50
2017-02-14T06:51:17.917Z,55
2017-02-14T06:53:20.310Z,55
2017-02-14T06:55:27.696Z,60
2017-02-14T06:57:29.966Z,65
2017-02-14T06:59:27.327Z,65
2017-02-14T07:01:29.596Z,70
2017-02-14T07:03:26.875Z,70
2017-02-14T07:05:34.404Z,80
2017-02-14T07:07:26.886Z,85
2017-02-14T07:09:19.185Z,90
2017-02-14T07:11:26.489Z,90
2017-02-14T07:13:18.931Z,95
2017-02-14T07:15:06.273Z,100
2017-02-14T07:17:08.706Z,100
2017-02-14T07:19:06.005Z,105
2017-02-14T07:21:13.302Z,115
2017-02-14T07:23:15.579Z,125
2017-02-14T07:25:27.970Z,125
2017-02-14T07:27:30.366Z,125
2017-02-14T07:29:22.787Z,130
2017-02-14T07:31:10.174Z,140
2017-02-14T07:32:57.624Z,140
2017-02-14T07:35:05.139Z,140
2017-02-14T07:36:57.574Z,150
2017-02-14T07:38:45.020Z,160
2017-02-14T07:40:52.289Z,160
2017-02-14T07:42:49.977Z,165
2017-02-14T07:44:52.614Z,170
2017-02-14T07:46:44.837Z,170
2017-02-14T07:48:32.221Z,185
2017-02-14T07:50:34.679Z,190
2017-02-14T07:52:37.193Z,210
2017-02-14T07:54:34.557Z,225
2017-02-14T07:56:26.775Z,225
2017-02-14T07:58:24.160Z,240
2017-02-14T08:00:26.491Z,255
2017-02-14T08:02:18.843Z,245
2017-02-14T08:04:21.034Z,245
2017-02-14T08:06:28.321Z,255
2017-02-14T08:08:30.625Z,270
2017-02-14T08:10:17.962Z,275
2017-02-14T08:12:15.246Z,280
2017-02-14T08:14:17.655Z,290
2017-02-14T08:16:14.860Z,300
2017-02-14T08:18:22.551Z,305
2017-02-14T08:20:09.923Z,320
2017-02-14T08:22:07.127Z,335
2017-02-14T08:23:59.448Z,350
2017-02-14T08:26:06.763Z,355
2017-02-14T08:28:08.938Z,355
2017-02-14T08:29:51.357Z,350
2017-02-14T08:31:53.552Z,345
2017-02-14T08:33:46.016Z,360
2017-02-14T08:35:53.439Z,355
2017-02-14T08:37:50.763Z,355
2017-02-14T08:39:58.089Z,350
2017-02-14T08:41:50.412Z,365
2017-02-14T08:43:57.776Z,400
2017-02-14T08:45:50.174Z,390
2017-02-14T08:47:47.507Z,395
2017-02-14T08:49:49.830Z,405
2017-02-14T08:51:57.109Z,425
2017-02-14T08:53:44.354Z,435
2017-02-14T08:55:51.512Z,445
2017-02-14T08:57:53.958Z,470
2017-02-14T08:59:56.188Z,495
2017-02-14T09:01:48.438Z,505
2017-02-14T09:03:45.924Z,495
2017-02-14T09:05:43.281Z,490
2017-02-14T09:07:45.541Z,515
2017-02-14T09:09:37.812Z,505
2017-02-14T09:11:35.278Z,470
2017-02-14T09:13:37.511Z,440
2017-02-14T09:15:34.929Z,415
2017-02-14T09:17:27.159Z,440
2017-02-14T09:19:29.462Z,465
2017-02-14T09:21:26.948Z,495
2017-02-14T09:23:29.368Z,525
2017-02-14T09:25:31.730Z,525
2017-02-14T09:27:29.048Z,530
2017-02-14T09:29:31.387Z,535
2017-02-14T09:31:33.779Z,530
2017-02-14T09:33:26.270Z,540
2017-02-14T09:35:13.596Z,590
2017-02-14T09:37:16.023Z,650
2017-02-14T09:39:18.237Z,690
2017-02-14T09:41:10.512Z,690
2017-02-14T09:43:02.847Z,715
2017-02-14T09:44:56.343Z,670
2017-02-14T09:46:53.608Z,605
2017-02-14T09:48:55.844Z,615
2017-02-14T09:50:53.511Z,710
2017-02-14T09:52:50.975Z,745
2017-02-14T09:54:53.223Z,785
2017-02-14T09:56:50.643Z,780
2017-02-14T09:58:43.052Z,720
2017-02-14T10:00:35.335Z,710
2017-02-14T10:02:32.680Z,835
2017-02-14T10:04:35.180Z,675
2017-02-14T10:06:32.443Z,685
2017-02-14T10:08:25.134Z,775
2017-02-14T10:10:12.417Z,800
2017-02-14T10:12:14.670Z,810
2017-02-14T10:13:57.077Z,840
2017-02-14T10:15:54.471Z,800
2017-02-14T10:17:46.795Z,800
2017-02-14T10:19:39.275Z,840
2017-02-14T10:21:36.512Z,965
2017-02-14T10:23:33.800Z,990
2017-02-14T10:25:26.239Z,1050
2017-02-14T10:27:23.602Z,1070
2017-02-14T10:29:11.031Z,1510
2017-02-14T10:31:14.125Z,1515
2017-02-14T10:33:11.519Z,1450
2017-02-14T10:35:08.916Z,1745
2017-02-14T10:37:06.246Z,1680
2017-02-14T10:39:13.564Z,1330
2017-02-14T10:41:15.931Z,1390
2017-02-14T10:43:08.471Z,1265
2017-02-14T10:44:55.844Z,1255
2017-02-14T10:46:53.106Z,1385
2017-02-14T10:49:00.318Z,1590
2017-02-14T10:50:57.587Z,1860
2017-02-14T10:52:49.895Z,2080
2017-02-14T10:54:42.823Z,2095
2017-02-14T10:56:35.170Z,2275
2017-02-14T10:58:17.566Z,2505
2017-02-14T11:00:29.884Z,2435
2017-02-14T11:02:27.431Z,2430
2017-02-14T11:04:40.094Z,2485
2017-02-14T11:06:32.458Z,2530
2017-02-14T11:08:24.885Z,2480
2017-02-14T11:10:22.345Z,2435
2017-02-14T11:12:24.663Z,2570
2017-02-14T11:14:22.075Z,2585
2017-02-14T11:16:24.342Z,2650
2017-02-14T11:18:21.884Z,2430
2017-02-14T11:20:24.301Z,2585
2017-02-14T11:22:21.844Z,2470
2017-02-14T11:24:24.212Z,2480
2017-02-14T11:26:26.458Z,2635
2017-02-14T11:28:28.698Z,2510
2017-02-14T11:30:25.915Z,2555
2017-02-14T11:32:23.147Z,2495
2017-02-14T11:34:25.534Z,2395
2017-02-14T11:36:22.855Z,2460
2017-02-14T11:38:30.208Z,2545
2017-02-14T11:40:37.581Z,2350
2017-02-14T11:42:39.890Z,2310
2017-02-14T11:44:47.129Z,2395
2017-02-14T11:46:44.401Z,2370
2017-02-14T11:48:37.542Z,2320
2017-02-14T11:50:48.436Z,2360
2017-02-14T11:52:40.850Z,2375
2017-02-14T11:54:38.132Z,2480
2017-02-14T11:56:47.674Z,2545
2017-02-14T11:58:52.519Z,2420
2017-02-14T12:00:44.946Z,2460
2017-02-14T12:02:37.275Z,2420
2017-02-14T12:04:39.586Z,2200
2017-02-14T12:06:27.020Z,2245
2017-02-14T12:08:39.161Z,2120
2017-02-14T12:10:41.440Z,2430
2017-02-14T12:12:33.726Z,2415
2017-02-14T12:14:26.016Z,2320
2017-02-14T12:16:23.269Z,2330
2017-02-14T12:18:20.453Z,2470
2017-02-14T12:20:02.830Z,2425
2017-02-14T12:21:50.112Z,2045
2017-02-14T12:23:52.342Z,2015
2017-02-14T12:25:49.716Z,2490
2017-02-14T12:27:51.934Z,2410
2017-02-14T12:29:49.161Z,2595
2017-02-14T12:31:56.690Z,2675
2017-02-14T12:33:49.199Z,2500
2017-02-14T12:35:46.589Z,2565
2017-02-14T12:37:48.799Z,2155
2017-02-14T12:39:57.115Z,1920
2017-02-14T12:41:54.385Z,2305
2017-02-14T12:43:56.784Z,2035
2017-02-14T12:45:59.078Z,1575
2017-02-14T12:47:56.955Z,1715
2017-02-14T12:49:44.379Z,1710
2017-02-14T12:51:46.787Z,1685
2017-02-14T12:53:50.543Z,1855
2017-02-14T12:55:42.885Z,2005
2017-02-14T12:57:35.081Z,2010
2017-02-14T12:59:33.386Z,1695
2017-02-14T13:01:20.666Z,1855
2017-02-14T13:03:22.984Z,1740
2017-02-14T13:05:20.233Z,1440
2017-02-14T13:07:17.523Z,1415
2017-02-14T13:09:14.902Z,1410
2017-02-14T13:11:17.189Z,1430
2017-02-14T13:13:21.763Z,1370
2017-02-14T13:15:09.449Z,1370
2017-02-14T13:17:16.747Z,1430
2017-02-14T13:18:59.281Z,1365
2017-02-14T13:21:01.608Z,1300
2017-02-14T13:23:04.504Z,1385
2017-02-14T13:24:57.076Z,1245
2017-02-14T13:26:59.399Z,1185
2017-02-14T13:28:52.532Z,1255
2017-02-14T13:31:00.174Z,1035
2017-02-14T13:32:57.729Z,1180
2017-02-14T13:34:45.047Z,1095
2017-02-14T13:36:47.430Z,1170
2017-02-14T13:38:44.894Z,1260
2017-02-14T13:40:37.185Z,1335
2017-02-14T13:42:39.607Z,1225
2017-02-14T13:44:41.867Z,1340
2017-02-14T13:46:39.508Z,1350
2017-02-14T13:48:46.896Z,1440
2017-02-14T13:50:44.394Z,1395
2017-02-14T13:52:46.791Z,1545
2017-02-14T13:54:39.132Z,1405
2017-02-14T13:56:36.429Z,1480
2017-02-14T13:58:43.787Z,1480
2017-02-14T14:00:46.305Z,1505
2017-02-14T14:02:38.574Z,1455
2017-02-14T14:04:36.077Z,1470
2017-02-14T14:06:28.446Z,1470
2017-02-14T14:08:20.772Z,1420
2017-02-14T14:10:08.261Z,1440
2017-02-14T14:12:00.689Z,1475
2017-02-14T14:13:53.060Z,1450
2017-02-14T14:15:40.426Z,1445
2017-02-14T14:17:27.760Z,1415
2017-02-14T14:19:40.044Z,1365
2017-02-14T14:21:32.519Z,1345
2017-02-14T14:23:29.812Z,1330
2017-02-14T14:25:27.153Z,1315
2017-02-14T14:27:24.712Z,1270
2017-02-14T14:29:17.538Z,1235
2017-02-14T14:31:24.753Z,1225
2017-02-14T14:33:26.998Z,1205
2017-02-14T14:35:29.580Z,1165
2017-02-14T14:37:26.994Z,1125
2017-02-14T14:39:14.305Z,1095
2017-02-14T14:41:06.770Z,1045
2017-02-14T14:43:04.094Z,1005
2017-02-14T14:45:06.475Z,955
2017-02-14T14:46:58.838Z,905
2017-02-14T14:49:01.288Z,840
2017-02-14T14:50:48.714Z,795
2017-02-14T14:52:46.036Z,780
2017-02-14T14:54:38.401Z,750
2017-02-14T14:56:35.794Z,745
2017-02-14T14:58:33.211Z,755
2017-02-14T15:00:35.672Z,765
2017-02-14T15:02:32.982Z,715
2017-02-14T15:04:35.347Z,670
2017-02-14T15:06:32.629Z,610
2017-02-14T15:08:40.247Z,610
2017-02-14T15:10:32.637Z,560
2017-02-14T15:12:45.247Z,495
2017-02-14T15:14:37.851Z,470
2017-02-14T15:16:30.476Z,440
2017-02-14T15:18:17.877Z,425
2017-02-14T15:20:05.227Z,460
2017-02-14T15:22:12.554Z,470
2017-02-14T15:24:14.823Z,430
2017-02-14T15:26:07.236Z,395
2017-02-14T15:28:09.691Z,375
2017-02-14T15:30:17.006Z,355
2017-02-14T15:32:20.511Z,340
2017-02-14T15:34:03.047Z,335
2017-02-14T15:35:45.697Z,325
2017-02-14T15:37:43.227Z,315
2017-02-14T15:39:30.599Z,300
2017-02-14T15:41:32.913Z,285
2017-02-14T15:43:30.585Z,280
2017-02-14T15:45:23.164Z,285
2017-02-14T15:47:25.854Z,265
2017-02-14T15:49:33.384Z,230
2017-02-14T15:51:20.750Z,220
2017-02-14T15:53:23.173Z,205
2017-02-14T15:55:20.653Z,195
2017-02-14T15:57:13.072Z,180
2017-02-14T15:59:00.462Z,170
2017-02-14T16:00:52.884Z,160
2017-02-14T16:02:50.270Z,150
2017-02-14T16:04:32.733Z,140
2017-02-14T16:06:30.287Z,130
2017-02-14T16:08:32.621Z,115
2017-02-14T16:10:30.188Z,105
2017-02-14T16:12:32.555Z,95
2017-02-14T16:14:24.903Z,90
2017-02-14T16:16:27.546Z,75
2017-02-14T16:18:30.008Z,65
2017-02-14T16:20:27.817Z,55
2017-02-14T16:22:30.414Z,50
2017-02-14T16:24:32.976Z,45
2017-02-14T16:26:35.464Z,35
2017-02-14T16:28:42.936Z,30
2017-02-14T16:30:50.887Z,25
2017-02-14T16:32:48.387Z,20
2017-02-14T16:34:41.129Z,20
2017-02-14T16:36:38.686Z,15
2017-02-14T16:38:36.357Z,10
2017-02-14T16:40:49.201Z,10
2017-02-14T16:42:41.786Z,5
2017-02-14T16:44:54.533Z,5
2017-02-14T16:46:51.922Z,5
2017-02-14T16:48:49.317Z,0
2017-02-14T16:50:46.800Z,0
2017-02-14T16:52:49.153Z,0
2017-02-14T16:54:51.887Z,0
2017-02-14T16:56:49.456Z,0
2017-02-14T16:58:55.077Z,0
2017-02-14T17:01:10.883Z,0
2017-02-14T17:03:08.519Z,0
2017-02-14T17:05:11.003Z,0
2017-02-14T17:07:03.303Z,0
2017-02-14T17:08:55.718Z,0
2017-02-14T17:10:53.170Z,0
2017-02-14T17:12:45.651Z,0
2017-02-14T17:14:43.997Z,0
2017-02-14T17:16:31.335Z,0
2017-02-14T17:18:28.850Z,0
2017-02-14T17:20:31.643Z,0
2017-02-14T17:22:34.193Z,0
2017-02-14T17:24:41.996Z,0
2017-02-14T17:26:34.451Z,0
2017-02-14T17:28:36.876Z,0
2017-02-14T17:30:29.699Z,0
2017-02-14T17:32:33.461Z,0
2017-02-14T17:34:30.782Z,0
2017-02-14T17:36:28.250Z,0
2017-02-14T17:38:25.787Z,0
2017-02-14T17:40:23.225Z,0
2017-02-14T17:42:25.784Z,0
2017-02-14T17:44:23.100Z,0
2017-02-14T17:46:35.764Z,0
2017-02-14T17:48:28.375Z,0
2017-02-14T17:50:20.883Z,0
2017-02-14T17:52:18.383Z,0
2017-02-14T17:54:25.689Z,0
2017-02-14T17:56:33.077Z,0
2017-02-14T17:58:25.477Z,0
2017-02-14T18:00:22.909Z,0
2017-02-14T18:02:21.239Z,0
2017-02-14T18:04:23.753Z,0
2017-02-14T18:06:26.103Z,0
2017-02-14T18:08:28.497Z,0
2017-02-14T18:10:25.961Z,0
2017-02-14T18:12:28.584Z,0
2017-02-14T18:14:31.056Z,0
2017-02-14T18:16:38.863Z,0
2017-02-14T18:18:46.370Z,0
2017-02-14T18:20:48.798Z,0
2017-02-14T18:22:56.296Z,0
2017-02-14T18:24:48.834Z,0
2017-02-14T18:26:46.171Z,0
2017-02-14T18:28:54.246Z,0
2017-02-14T18:30:54.876Z,0
2017-02-14T18:33:05.456Z,0
2017-02-14T18:35:08.167Z,0
2017-02-14T18:37:07.184Z,0
2017-02-14T18:39:09.760Z,0
2017-02-14T18:40:57.968Z,0
2017-02-14T18:43:00.362Z,0
2017-02-14T18:45:12.982Z,0
2017-02-14T18:47:20.439Z,0
2017-02-14T18:49:31.812Z,0
2017-02-14T18:51:53.622Z,0
2017-02-14T18:54:17.835Z,0
2017-02-14T18:56:55.415Z,0
2017-02-14T18:59:43.614Z,0
2017-02-14T19:02:42.482Z,0
2017-02-14T19:05:42.233Z,0
2017-02-14T19:08:46.459Z,0
2017-02-14T19:11:43.750Z,0
2017-02-14T19:14:41.594Z,0
2017-02-14T19:16:47.583Z,0
2017-02-14T19:18:45.425Z,0
2017-02-14T19:21:05.605Z,0
2017-02-14T19:23:31.275Z,0
2017-02-14T19:25:59.607Z,0
2017-02-14T19:28:36.373Z,0
2017-02-14T19:31:23.860Z,0
2017-02-14T19:34:18.674Z,0
2017-02-14T19:37:10.688Z,0
2017-02-14T19:40:08.823Z,0
2017-02-14T19:42:59.265Z,0
2017-02-14T19:45:53.298Z,0
2017-02-14T19:48:47.440Z,0
2017-02-14T19:51:43.852Z,0
2017-02-14T19:54:33.386Z,0
2017-02-14T19:57:35.147Z,0
2017-02-14T20:00:37.828Z,0
2017-02-14T20:03:37.496Z,0
2017-02-14T20:06:44.515Z,0
2017-02-14T20:13:05.675Z,0
2017-02-14T20:16:05.240Z,0
2017-02-14T20:19:03.001Z,0
2017-02-14T20:22:07.664Z,0
2017-02-14T20:25:08.956Z,0
2017-02-14T20:31:13.499Z,0
2017-02-14T20:34:13.164Z,0
2017-02-14T20:37:20.142Z,0
2017-02-14T20:40:16.654Z,0
2017-02-14T20:43:17.516Z,0
2017-02-14T20:46:17.016Z,0
2017-02-14T20:49:16.996Z,0
2017-02-14T20:52:02.446Z,0
2017-02-14T20:57:57.903Z,0
2017-02-14T21:00:32.875Z,0
2017-02-14T21:02:42.678Z,0
2017-02-14T21:04:58.649Z,0
2017-02-14T21:07:09.727Z,0
2017-02-14T21:09:20.962Z,0
2017-02-14T21:11:32.881Z,0
2017-02-14T21:13:45.528Z,0
2017-02-14T21:15:56.349Z,0
2017-02-14T21:18:09.303Z,0
2017-02-14T21:20:11.248Z,0
2017-02-14T21:22:16.957Z,0
2017-02-14T21:24:34.023Z,0
2017-02-14T21:26:37.145Z,0
2017-02-14T21:28:48.204Z,0
2017-02-14T21:30:59.608Z,0
2017-02-14T21:33:09.327Z,0
2017-02-14T21:35:23.796Z,0
2017-02-14T21:37:21.651Z,0
2017-02-14T21:39:19.129Z,0
2017-02-14T21:41:06.710Z,0
2017-02-14T21:43:19.189Z,0
2017-02-14T21:45:26.456Z,0
2017-02-14T21:47:38.855Z,0
2017-02-14T21:49:46.330Z,0
2017-02-14T21:51:53.603Z,0
2017-02-14T21:54:01.148Z,0
2017-02-14T21:56:08.669Z,0
2017-02-14T21:58:11.121Z,0
2017-02-14T22:00:18.411Z,0
2017-02-14T22:02:20.883Z,0
2017-02-14T22:04:18.408Z,0
2017-02-14T22:06:15.751Z,0
2017-02-14T22:08:13.220Z,0
2017-02-14T22:10:00.882Z,0
2017-02-14T22:11:58.759Z,0
2017-02-14T22:14:01.025Z,0
2017-02-14T22:15:55.715Z,0
2017-02-14T22:17:58.915Z,0
2017-02-14T22:19:51.602Z,0
2017-02-14T22:21:50.069Z,0
2017-02-14T22:23:42.411Z,0
2017-02-14T22:25:34.665Z,0
2017-02-14T22:27:32.553Z,0
2017-02-14T22:29:34.907Z,0
2017-02-14T22:31:32.537Z,0
2017-02-14T22:33:52.317Z,0
2017-02-14T22:35:55.262Z,0
2017-02-14T22:38:05.130Z,0
2017-02-14T22:41:04.021Z,0
2017-02-14T22:44:03.403Z,0
2017-02-14T22:47:01.190Z,0
2017-02-14T22:49:52.346Z,0
2017-02-14T22:52:46.677Z,0
2017-02-14T22:55:47.657Z,0
2017-02-14T22:58:13.533Z,0
2017-02-14T23:00:22.933Z,0
2017-02-14T23:02:30.671Z,0
2017-02-14T23:04:44.412Z,0
2017-02-14T23:07:14.094Z,0
2017-02-14T23:09:43.785Z,0
2017-02-14T23:11:52.335Z,0
2017-02-14T23:14:33.544Z,0
2017-02-14T23:17:17.949Z,0
2017-02-14T23:20:05.913Z,0
2017-02-14T23:22:58.842Z,0
2017-02-14T23:25:48.984Z,0
2017-02-14T23:28:41.311Z,0
2017-02-14T23:31:35.411Z,0
2017-02-14T23:33:44.387Z,0
2017-02-14T23:36:01.551Z,0
2017-02-14T23:38:19.544Z,0
2017-02-14T23:40:48.372Z,0
2017-02-14T23:43:12.714Z,0
2017-02-14T23:45:29.273Z,0
2017-02-14T23:47:49.985Z,0
2017-02-14T23:50:12.723Z,0
2017-02-14T23:52:30.457Z,0
2017-02-14T23:55:00.968Z,0
2017-02-14T23:57:17.983Z,0
2017-02-14T23:59:37.842Z,0
